Time;durP1;ratioP1;P1;durP2;ratioP2;P2;SDS_P1;SDS_P2;PMS_P1;PMS_P2;Temp;Humidity;BMP_temperature;BMP_pressure;BME280_temperature;BME280_humidity;BME280_pressure;Samples;Min_cycle;Max_cycle;Signal;HPM_P1;HPM_P2
2021/03/31 00:01:12;;;;;;;12.88;6.43;;;11.80;67.00;;;;;;5014764;28;20041;-85
2021/03/31 00:03:38;;;;;;;14.88;6.70;;;11.80;67.80;;;;;;5016373;28;20030;-84
2021/03/31 00:06:04;;;;;;;14.93;6.85;;;11.80;68.00;;;;;;5015058;28;20022;-84
2021/03/31 00:08:31;;;;;;;13.35;7.30;;;11.70;68.30;;;;;;5011413;28;20442;-84
2021/03/31 00:10:59;;;;;;;19.15;7.00;;;11.70;68.80;;;;;;5017273;28;20028;-85
2021/03/31 00:13:25;;;;;;;14.07;7.18;;;11.70;69.20;;;;;;5016249;28;20479;-85
2021/03/31 00:15:53;;;;;;;13.52;6.82;;;11.70;69.40;;;;;;5016257;28;20022;-85
2021/03/31 00:18:21;;;;;;;15.63;7.10;;;11.70;69.60;;;;;;5016647;28;20514;-85
2021/03/31 00:20:47;;;;;;;12.88;6.75;;;11.60;70.10;;;;;;5010425;28;20038;-85
2021/03/31 00:23:21;;;;;;;13.23;6.38;;;11.60;70.50;;;;;;5016153;28;20030;-85
2021/03/31 00:25:47;;;;;;;13.75;7.32;;;11.60;70.40;;;;;;5017350;28;20017;-85
2021/03/31 00:28:13;;;;;;;16.13;7.35;;;11.40;70.30;;;;;;5014717;28;20578;-84
2021/03/31 00:30:39;;;;;;;13.13;6.97;;;11.50;70.80;;;;;;5013706;28;20051;-85
2021/03/31 00:33:06;;;;;;;14.55;7.68;;;11.50;71.50;;;;;;5017399;28;20061;-85
2021/03/31 00:35:32;;;;;;;13.68;7.55;;;11.40;72.30;;;;;;5014828;28;20029;-85
2021/03/31 00:37:57;;;;;;;13.63;6.95;;;11.40;73.10;;;;;;5016526;28;20406;-85
2021/03/31 00:40:27;;;;;;;12.45;6.93;;;11.30;73.30;;;;;;5015978;28;20414;-85
2021/03/31 00:42:53;;;;;;;14.90;7.50;;;11.30;73.40;;;;;;5010679;28;20467;-85
2021/03/31 00:45:19;;;;;;;15.05;7.38;;;11.20;74.10;;;;;;5016264;28;20032;-85
2021/03/31 00:47:45;;;;;;;13.60;6.90;;;11.20;74.90;;;;;;5015152;28;20025;-86
2021/03/31 00:50:16;;;;;;;11.63;6.85;;;11.20;75.30;;;;;;5016093;28;20459;-85
2021/03/31 00:52:43;;;;;;;13.88;7.70;;;11.10;75.80;;;;;;5015691;28;20033;-84
2021/03/31 00:55:11;;;;;;;14.75;6.70;;;11.10;75.60;;;;;;5011129;28;20025;-84
2021/03/31 00:57:37;;;;;;;17.15;7.82;;;11.10;76.60;;;;;;5014685;28;20030;-85
2021/03/31 01:00:05;;;;;;;12.95;7.18;;;11.10;76.50;;;;;;5014525;28;20069;-85
2021/03/31 01:02:31;;;;;;;15.38;8.13;;;11.10;77.20;;;;;;5007216;28;20108;-85
2021/03/31 01:04:56;;;;;;;18.90;7.68;;;11.10;77.90;;;;;;5014947;28;20486;-85
2021/03/31 01:07:22;;;;;;;15.35;7.07;;;11.10;78.10;;;;;;5015676;28;20131;-85
2021/03/31 01:09:50;;;;;;;12.90;7.63;;;11.10;78.40;;;;;;5016601;28;20102;-85
2021/03/31 01:12:46;;;;;;;15.20;8.38;;;11.10;79.00;;;;;;5016003;28;20014;-85
2021/03/31 01:15:17;;;;;;;15.38;8.15;;;11.00;79.00;;;;;;5011424;28;20030;-85
2021/03/31 01:18:14;;;;;;;15.18;8.18;;;11.00;79.30;;;;;;5012152;28;20030;-84
2021/03/31 01:20:53;;;;;;;16.40;8.68;;;11.00;80.40;;;;;;5007715;28;20064;-84
2021/03/31 01:23:46;;;;;;;19.05;8.85;;;10.90;81.20;;;;;;5013128;28;20026;-84
2021/03/31 01:26:33;;;;;;;17.65;8.82;;;10.90;81.60;;;;;;5010764;28;20083;-84
2021/03/31 01:29:09;;;;;;;15.52;7.97;;;10.90;81.40;;;;;;5009571;28;20018;-84
2021/03/31 01:31:44;;;;;;;15.38;8.02;;;10.80;82.30;;;;;;5009278;28;20040;-85
2021/03/31 01:34:36;;;;;;;16.80;8.15;;;10.80;82.10;;;;;;5013553;28;20026;-84
2021/03/31 01:37:08;;;;;;;14.55;7.75;;;10.80;82.50;;;;;;5014642;28;20087;-85
2021/03/31 01:39:38;;;;;;;15.73;8.10;;;10.80;83.20;;;;;;5016168;28;20081;-84
2021/03/31 01:42:05;;;;;;;17.17;7.72;;;10.80;83.50;;;;;;5014428;28;20113;-85
2021/03/31 01:44:36;;;;;;;16.05;7.88;;;10.80;84.60;;;;;;5014417;28;20033;-85
2021/03/31 01:47:02;;;;;;;15.48;7.82;;;10.80;84.60;;;;;;5016363;28;20444;-85
2021/03/31 01:49:28;;;;;;;16.85;8.32;;;10.80;84.90;;;;;;5015124;28;20039;-85
2021/03/31 01:52:05;;;;;;;14.57;7.65;;;10.80;85.10;;;;;;5016478;28;20024;-85
2021/03/31 01:54:32;;;;;;;15.38;8.60;;;10.80;85.60;;;;;;5014149;28;20033;-85
2021/03/31 01:56:59;;;;;;;14.80;7.93;;;10.80;85.10;;;;;;5014899;28;20022;-85
2021/03/31 01:59:26;;;;;;;16.48;8.60;;;10.70;85.70;;;;;;5015998;28;20097;-85
2021/03/31 02:01:53;;;;;;;19.80;8.93;;;10.70;85.90;;;;;;5020152;28;20399;-85
2021/03/31 02:04:20;;;;;;;18.42;7.72;;;10.70;86.40;;;;;;5018092;28;20026;-86
2021/03/31 02:06:46;;;;;;;16.98;8.23;;;10.60;86.90;;;;;;5017062;28;20095;-85
2021/03/31 02:09:14;;;;;;;15.98;7.95;;;10.60;87.50;;;;;;5016600;28;20095;-85
2021/03/31 02:11:43;;;;;;;15.10;8.30;;;10.60;87.00;;;;;;5020855;28;20018;-84
2021/03/31 02:14:13;;;;;;;16.42;8.75;;;10.60;87.50;;;;;;5019109;28;20018;-85
2021/03/31 02:16:43;;;;;;;13.43;7.95;;;10.50;88.20;;;;;;5019942;28;20030;-85
2021/03/31 02:19:12;;;;;;;16.52;8.52;;;10.50;88.20;;;;;;5018068;28;20068;-84
2021/03/31 02:21:40;;;;;;;17.13;8.73;;;10.50;88.50;;;;;;5018642;28;20022;-85
2021/03/31 02:24:06;;;;;;;22.40;9.27;;;10.50;88.30;;;;;;5019449;28;20394;-85
2021/03/31 02:26:32;;;;;;;16.15;8.55;;;10.40;88.90;;;;;;5014666;28;20076;-85
2021/03/31 02:28:57;;;;;;;18.70;9.10;;;10.40;88.60;;;;;;5016682;28;20018;-85
2021/03/31 02:31:24;;;;;;;18.75;8.10;;;10.30;87.80;;;;;;5018058;28;20383;-85
2021/03/31 02:33:53;;;;;;;20.30;9.73;;;10.40;88.70;;;;;;5018044;28;20071;-85
2021/03/31 02:36:20;;;;;;;19.30;9.02;;;10.30;88.90;;;;;;5012250;28;20033;-85
2021/03/31 02:38:48;;;;;;;19.55;8.60;;;10.30;89.10;;;;;;5014052;28;20489;-85
2021/03/31 02:41:15;;;;;;;17.48;7.90;;;10.30;89.30;;;;;;5017864;28;20036;-84
2021/03/31 02:43:45;;;;;;;17.08;8.57;;;10.30;89.50;;;;;;5026087;28;20039;-85
2021/03/31 02:46:16;;;;;;;16.92;8.02;;;10.30;90.00;;;;;;5019644;28;20021;-84
2021/03/31 02:48:44;;;;;;;18.30;8.07;;;10.30;89.70;;;;;;5020475;28;20093;-86
2021/03/31 02:51:12;;;;;;;19.92;8.52;;;10.20;90.10;;;;;;5016359;28;20079;-85
2021/03/31 02:53:40;;;;;;;16.75;8.48;;;10.20;90.20;;;;;;5029936;28;20100;-86
2021/03/31 02:56:06;;;;;;;15.70;8.02;;;10.20;90.70;;;;;;5024219;28;20105;-84
2021/03/31 02:58:32;;;;;;;13.63;7.97;;;10.20;90.80;;;;;;5017715;28;20034;-85
2021/03/31 03:00:58;;;;;;;18.02;8.50;;;10.10;90.70;;;;;;5018140;28;20042;-85
2021/03/31 03:03:25;;;;;;;16.67;9.15;;;10.10;91.10;;;;;;5016458;28;20030;-85
2021/03/31 03:05:54;;;;;;;20.05;8.80;;;10.10;91.20;;;;;;5017883;28;20117;-84
2021/03/31 03:08:20;;;;;;;16.17;8.23;;;10.10;90.60;;;;;;5016669;28;20037;-85
2021/03/31 03:10:46;;;;;;;15.05;8.45;;;10.10;90.70;;;;;;5017042;28;20018;-85
2021/03/31 03:13:13;;;;;;;17.33;7.93;;;10.00;90.80;;;;;;5017081;28;20316;-85
2021/03/31 03:15:39;;;;;;;18.98;8.82;;;10.00;90.60;;;;;;5016827;28;20106;-85
2021/03/31 03:18:05;;;;;;;18.02;8.65;;;10.00;90.90;;;;;;5016685;28;20026;-85
2021/03/31 03:20:30;;;;;;;21.15;8.75;;;10.00;90.60;;;;;;5016918;28;20045;-86
2021/03/31 03:22:57;;;;;;;17.17;8.77;;;10.00;90.50;;;;;;5016987;28;20018;-85
2021/03/31 03:25:25;;;;;;;18.27;8.90;;;9.90;90.70;;;;;;5014684;28;20025;-85
2021/03/31 03:27:51;;;;;;;16.00;8.30;;;9.90;90.80;;;;;;5015184;28;20022;-84
2021/03/31 03:30:19;;;;;;;18.38;8.68;;;9.90;91.20;;;;;;5015121;28;20028;-84
2021/03/31 03:32:48;;;;;;;16.52;8.43;;;9.80;91.30;;;;;;5015697;28;20030;-85
2021/03/31 03:35:16;;;;;;;17.63;8.55;;;9.80;91.30;;;;;;5017198;28;20022;-85
2021/03/31 03:37:47;;;;;;;17.67;8.43;;;9.70;91.40;;;;;;5016167;28;20022;-85
2021/03/31 03:40:14;;;;;;;18.00;7.97;;;9.70;91.90;;;;;;5028451;23;20580;-83
2021/03/31 03:42:40;;;;;;;16.05;8.02;;;9.60;91.50;;;;;;5032635;28;20512;-83
2021/03/31 03:45:07;;;;;;;16.95;7.50;;;9.60;91.30;;;;;;5036028;28;20021;-82
2021/03/31 03:47:34;;;;;;;17.50;7.60;;;9.60;91.70;;;;;;5054505;28;20032;-83
2021/03/31 03:50:01;;;;;;;14.70;7.97;;;9.60;92.50;;;;;;5033276;28;20463;-84
2021/03/31 03:52:27;;;;;;;17.33;7.82;;;9.60;92.40;;;;;;5019893;28;20022;-83
2021/03/31 03:54:54;;;;;;;17.23;8.32;;;9.50;92.40;;;;;;5015197;28;20022;-84
2021/03/31 03:57:28;;;;;;;19.00;7.78;;;9.50;92.10;;;;;;5018038;28;20021;-83
2021/03/31 03:59:54;;;;;;;17.10;7.97;;;9.50;92.40;;;;;;5017833;28;20609;-84
2021/03/31 04:02:20;;;;;;;17.30;8.15;;;9.50;92.60;;;;;;5018643;28;20045;-83
2021/03/31 04:04:46;;;;;;;16.92;8.52;;;9.50;92.80;;;;;;5017184;28;20486;-83
2021/03/31 04:07:12;;;;;;;16.70;8.07;;;9.40;93.20;;;;;;5017346;28;20025;-84
2021/03/31 04:09:41;;;;;;;18.17;8.40;;;9.40;93.10;;;;;;5019946;28;20030;-84
2021/03/31 04:12:08;;;;;;;16.73;8.50;;;9.40;93.50;;;;;;5018440;28;20091;-84
2021/03/31 04:14:38;;;;;;;20.25;9.20;;;9.40;93.60;;;;;;5014771;28;20112;-84
2021/03/31 04:17:06;;;;;;;17.15;8.40;;;9.40;93.70;;;;;;5008349;28;20237;-83
2021/03/31 04:19:34;;;;;;;16.02;8.07;;;9.30;93.50;;;;;;5016589;28;20033;-84
2021/03/31 04:21:59;;;;;;;16.42;8.55;;;9.30;93.50;;;;;;5019727;28;20026;-84
2021/03/31 04:24:25;;;;;;;18.88;8.52;;;9.30;93.60;;;;;;5018271;28;20044;-84
2021/03/31 04:26:54;;;;;;;16.23;8.00;;;9.20;93.60;;;;;;5017328;28;20036;-83
2021/03/31 04:29:20;;;;;;;16.90;7.80;;;9.20;93.70;;;;;;5018039;28;20029;-84
2021/03/31 04:31:46;;;;;;;21.55;8.80;;;9.20;94.10;;;;;;5016738;28;20088;-84
2021/03/31 04:34:12;;;;;;;16.30;8.18;;;9.20;94.20;;;;;;5017251;28;20030;-84
2021/03/31 04:36:38;;;;;;;15.98;7.95;;;9.10;94.20;;;;;;5017620;28;20041;-84
2021/03/31 04:39:06;;;;;;;15.98;8.55;;;9.10;94.20;;;;;;5015627;28;20029;-84
2021/03/31 04:41:32;;;;;;;18.38;7.50;;;9.10;94.30;;;;;;5009905;28;20038;-84
2021/03/31 04:43:58;;;;;;;17.45;8.23;;;9.10;94.40;;;;;;5016690;28;20105;-84
2021/03/31 04:46:24;;;;;;;19.52;8.30;;;9.10;94.60;;;;;;5017104;28;20072;-84
2021/03/31 04:48:49;;;;;;;16.90;7.93;;;9.10;94.70;;;;;;5017741;28;20037;-83
2021/03/31 04:51:15;;;;;;;21.17;8.60;;;9.10;94.70;;;;;;5017841;28;20073;-84
2021/03/31 04:53:41;;;;;;;14.57;7.47;;;9.10;94.50;;;;;;5017695;28;20030;-84
2021/03/31 04:56:07;;;;;;;21.13;7.80;;;9.00;94.50;;;;;;5018147;28;20097;-83
2021/03/31 04:58:33;;;;;;;18.85;8.45;;;9.00;94.80;;;;;;5015762;28;20553;-84
2021/03/31 05:00:59;;;;;;;18.15;8.18;;;9.00;94.90;;;;;;5019783;28;20017;-84
2021/03/31 05:03:26;;;;;;;17.00;7.90;;;9.00;95.40;;;;;;5017477;28;20025;-83
2021/03/31 05:05:52;;;;;;;15.43;7.30;;;9.00;95.30;;;;;;5016050;28;20097;-84
2021/03/31 05:08:18;;;;;;;13.80;6.93;;;8.90;95.50;;;;;;5012513;28;20045;-83
2021/03/31 05:10:44;;;;;;;15.75;8.20;;;9.00;96.00;;;;;;5012586;28;20033;-84
2021/03/31 05:13:10;;;;;;;17.33;7.72;;;8.90;95.90;;;;;;5013454;28;20084;-84
2021/03/31 05:15:35;;;;;;;16.75;7.88;;;8.90;95.80;;;;;;5017189;28;20018;-83
2021/03/31 05:18:01;;;;;;;14.05;6.55;;;8.90;95.70;;;;;;5017882;28;20111;-84
2021/03/31 05:20:27;;;;;;;13.70;7.05;;;8.80;95.90;;;;;;5017975;28;20033;-84
2021/03/31 05:22:52;;;;;;;12.23;6.75;;;8.60;96.50;;;;;;5018658;28;20022;-84
2021/03/31 05:25:18;;;;;;;12.10;6.82;;;8.50;97.50;;;;;;5012442;28;20077;-82
2021/03/31 05:27:44;;;;;;;15.10;6.45;;;8.60;97.90;;;;;;5011063;28;20025;-84
2021/03/31 05:30:10;;;;;;;16.50;6.93;;;8.60;98.10;;;;;;5015990;28;20049;-84
2021/03/31 05:32:37;;;;;;;11.05;6.63;;;8.60;98.10;;;;;;5014180;28;20021;-84
2021/03/31 05:35:04;;;;;;;14.23;6.80;;;8.70;98.10;;;;;;5012740;28;20367;-84
2021/03/31 05:37:30;;;;;;;12.48;6.30;;;8.70;98.20;;;;;;5024533;28;20067;-84
2021/03/31 05:39:56;;;;;;;17.23;6.65;;;8.70;98.30;;;;;;5014626;28;20296;-84
2021/03/31 05:42:21;;;;;;;18.23;6.78;;;8.70;98.20;;;;;;5014337;28;20034;-84
2021/03/31 05:44:47;;;;;;;17.50;7.43;;;8.90;98.20;;;;;;5011936;28;20061;-83
2021/03/31 05:47:30;;;;;;;15.73;6.97;;;8.80;97.50;;;;;;5010163;28;20025;-82
2021/03/31 05:49:57;;;;;;;12.93;5.85;;;8.80;97.90;;;;;;5013413;28;20025;-83
2021/03/31 05:52:23;;;;;;;12.48;6.30;;;8.70;98.60;;;;;;5013724;28;20037;-83
2021/03/31 05:54:49;;;;;;;12.13;6.22;;;8.70;98.80;;;;;;5014592;28;20083;-83
2021/03/31 05:57:18;;;;;;;17.10;6.18;;;8.70;99.00;;;;;;5013780;28;20037;-84
2021/03/31 05:59:44;;;;;;;11.10;5.88;;;8.60;99.50;;;;;;5014253;28;20478;-84
2021/03/31 06:02:12;;;;;;;10.48;5.78;;;8.60;99.80;;;;;;5012411;28;20022;-84
2021/03/31 06:04:40;;;;;;;15.57;6.13;;;8.50;99.90;;;;;;5012708;28;20018;-83
2021/03/31 06:07:05;;;;;;;13.50;6.03;;;8.50;99.90;;;;;;5013679;28;20017;-84
2021/03/31 06:09:31;;;;;;;13.68;6.00;;;8.50;99.80;;;;;;5012421;28;20137;-84
2021/03/31 06:11:58;;;;;;;12.13;5.78;;;8.50;99.90;;;;;;5009802;28;20025;-83
2021/03/31 06:14:31;;;;;;;11.25;6.03;;;8.40;99.90;;;;;;5013501;28;20040;-83
2021/03/31 06:17:05;;;;;;;12.13;5.88;;;8.40;99.90;;;;;;5010189;28;20022;-85
2021/03/31 06:19:32;;;;;;;12.43;6.03;;;8.30;99.90;;;;;;5011157;28;20030;-84
2021/03/31 06:22:16;;;;;;;15.52;6.28;;;8.30;99.90;;;;;;5011822;28;20022;-83
2021/03/31 06:24:47;;;;;;;11.45;5.57;;;8.30;99.90;;;;;;5010813;28;20473;-84
2021/03/31 06:27:25;;;;;;;10.82;5.20;;;8.40;99.90;;;;;;5015472;28;20450;-84
2021/03/31 06:30:06;;;;;;;12.40;5.75;;;8.60;99.90;;;;;;5015433;28;20030;-84
2021/03/31 06:32:39;;;;;;;13.43;6.18;;;8.80;99.90;;;;;;5012939;28;20491;-85
2021/03/31 06:35:15;;;;;;;13.73;5.70;;;8.80;99.40;;;;;;5027513;28;20085;-85
2021/03/31 06:37:41;;;;;;;14.38;6.20;;;8.90;99.20;;;;;;5018263;28;20022;-85
2021/03/31 06:40:08;;;;;;;11.38;6.07;;;9.10;98.90;;;;;;5022909;28;20115;-84
2021/03/31 06:42:41;;;;;;;14.65;5.93;;;9.30;98.70;;;;;;5017614;28;20030;-83
2021/03/31 06:45:11;;;;;;;11.73;6.10;;;9.40;98.10;;;;;;5012717;28;20054;-83
2021/03/31 06:50:37;;;;;;;10.75;6.30;;;9.70;97.20;;;;;;4984722;28;20034;-84
2021/03/31 06:53:05;;;;;;;13.63;6.50;;;9.70;96.80;;;;;;5018507;28;20137;-85
2021/03/31 06:55:31;;;;;;;15.27;6.05;;;9.70;96.80;;;;;;5017604;28;20018;-84
2021/03/31 06:57:59;;;;;;;12.80;6.13;;;9.50;97.20;;;;;;5016116;28;20502;-85
2021/03/31 07:00:44;;;;;;;13.18;6.10;;;9.40;97.60;;;;;;5018003;28;20026;-84
2021/03/31 07:03:11;;;;;;;11.30;6.43;;;9.40;98.00;;;;;;5014155;28;20021;-85
2021/03/31 07:05:39;;;;;;;15.48;6.57;;;9.40;98.10;;;;;;5017200;28;20026;-84
2021/03/31 07:08:07;;;;;;;13.60;6.00;;;9.50;98.10;;;;;;5018275;28;20072;-84
2021/03/31 07:10:49;;;;;;;14.48;6.20;;;9.60;98.00;;;;;;5011977;28;20533;-83
2021/03/31 07:13:34;;;;;;;;;;;9.70;97.80;;;;;;5015104;28;20029;-84
2021/03/31 07:16:02;;;;;;;12.88;6.68;;;9.80;97.60;;;;;;5015926;28;19984;-84
2021/03/31 07:18:30;;;;;;;12.55;5.95;;;10.00;97.20;;;;;;5015259;28;20490;-85
2021/03/31 07:21:00;;;;;;;10.30;5.65;;;10.10;97.10;;;;;;5012610;28;20041;-85
2021/03/31 07:23:26;;;;;;;14.77;6.40;;;10.30;96.70;;;;;;5013619;28;20389;-84
2021/03/31 07:25:54;;;;;;;16.38;6.57;;;10.40;96.20;;;;;;5012053;28;20025;-85
2021/03/31 07:28:32;;;;;;;15.07;6.18;;;10.60;96.20;;;;;;5016078;28;20030;-85
2021/03/31 07:31:00;;;;;;;14.23;6.35;;;10.70;96.10;;;;;;5011712;28;20029;-84
2021/03/31 07:33:27;;;;;;;15.27;6.38;;;10.80;96.00;;;;;;5018678;28;20494;-85
2021/03/31 07:35:54;;;;;;;13.40;6.55;;;10.90;96.00;;;;;;5016077;28;20112;-85
2021/03/31 07:38:22;;;;;;;13.27;6.10;;;10.90;95.40;;;;;;5017779;28;20048;-84
2021/03/31 07:40:51;;;;;;;13.70;6.18;;;11.10;95.20;;;;;;5014327;28;20030;-85
2021/03/31 07:43:25;;;;;;;15.00;6.63;;;11.10;95.50;;;;;;5014855;28;20033;-84
2021/03/31 07:46:11;;;;;;;14.68;6.75;;;11.20;95.70;;;;;;5016316;28;20088;-84
2021/03/31 07:48:40;;;;;;;16.63;6.60;;;11.30;95.60;;;;;;5004330;28;20056;-85
2021/03/31 07:51:29;;;;;;;14.88;7.03;;;11.50;95.70;;;;;;5012544;28;20034;-89
2021/03/31 07:53:56;;;;;;;17.80;6.45;;;11.70;95.10;;;;;;5013826;28;20022;-89
2021/03/31 07:56:31;;;;;;;19.13;6.97;;;11.90;95.10;;;;;;5012713;28;20033;-89
2021/03/31 07:59:11;;;;;;;13.25;6.43;;;12.00;94.80;;;;;;5013766;28;20136;-89
2021/03/31 08:01:51;;;;;;;16.70;7.13;;;12.10;94.10;;;;;;5008594;28;20475;-89
2021/03/31 08:04:22;;;;;;;17.13;6.82;;;12.20;93.50;;;;;;5009692;28;20100;-89
2021/03/31 08:06:53;;;;;;;11.80;5.97;;;12.40;93.30;;;;;;5012309;28;20034;-88
2021/03/31 08:09:19;;;;;;;15.65;6.22;;;12.60;93.20;;;;;;5031896;28;20112;-88
2021/03/31 08:11:59;;;;;;;18.52;6.75;;;12.90;92.80;;;;;;5009642;28;20057;-89
2021/03/31 08:14:30;;;;;;;16.63;6.40;;;13.10;91.70;;;;;;5012081;28;20053;-89
2021/03/31 08:16:57;;;;;;;13.23;6.22;;;13.20;91.20;;;;;;5006403;28;20052;-90
2021/03/31 08:19:30;;;;;;;15.45;6.30;;;13.30;91.20;;;;;;5006515;28;20054;-88
2021/03/31 08:21:57;;;;;;;13.77;5.80;;;13.40;91.50;;;;;;5010998;28;20812;-89
2021/03/31 08:24:45;;;;;;;17.95;6.57;;;13.70;91.30;;;;;;5009984;28;20034;-89
2021/03/31 08:27:13;;;;;;;18.23;6.65;;;13.80;91.30;;;;;;5006886;28;20395;-88
2021/03/31 08:29:42;;;;;;;16.35;6.03;;;13.90;90.30;;;;;;5011405;28;20026;-89
2021/03/31 08:32:09;;;;;;;13.80;6.50;;;13.90;90.50;;;;;;5009277;28;20018;-89
2021/03/31 08:34:35;;;;;;;16.92;6.72;;;14.10;89.10;;;;;;5007751;28;20025;-89
2021/03/31 08:37:26;;;;;;;15.77;6.47;;;14.20;89.80;;;;;;5010206;28;20033;-88
2021/03/31 08:39:57;;;;;;;14.38;6.45;;;14.40;87.90;;;;;;5010020;28;20434;-89
2021/03/31 08:42:23;;;;;;;14.48;6.90;;;14.60;87.70;;;;;;5009970;28;20029;-88
2021/03/31 08:44:57;;;;;;;15.40;6.18;;;14.70;84.80;;;;;;5019801;28;20053;-88
2021/03/31 08:47:30;;;;;;;24.08;6.30;;;14.80;84.20;;;;;;5013164;28;20371;-89
2021/03/31 08:50:01;;;;;;;14.38;6.75;;;15.00;84.50;;;;;;5013914;28;20021;-89
2021/03/31 08:52:33;;;;;;;13.13;6.53;;;15.30;83.10;;;;;;5010391;28;20026;-90
2021/03/31 08:55:00;;;;;;;13.57;7.18;;;15.60;83.00;;;;;;5034592;28;20032;-89
2021/03/31 08:57:38;;;;;;;17.25;6.85;;;15.90;82.20;;;;;;5012786;28;20040;-88
2021/03/31 09:00:08;;;;;;;13.95;6.18;;;16.10;81.30;;;;;;5013960;28;20041;-88
2021/03/31 09:02:38;;;;;;;15.88;6.78;;;16.20;79.00;;;;;;5016461;28;20036;-89
2021/03/31 09:05:07;;;;;;;14.20;6.53;;;16.30;77.50;;;;;;5017509;28;20026;-88
2021/03/31 09:07:33;;;;;;;12.32;6.38;;;16.50;77.30;;;;;;5010721;28;20398;-89
2021/03/31 09:10:00;;;;;;;14.27;7.47;;;16.60;76.70;;;;;;5013205;28;20034;-88
2021/03/31 09:12:29;;;;;;;20.05;7.18;;;16.70;75.00;;;;;;5014335;28;20112;-89
2021/03/31 09:14:57;;;;;;;16.27;6.95;;;16.90;73.90;;;;;;5014608;28;20022;-89
2021/03/31 09:17:28;;;;;;;12.70;6.38;;;17.10;72.40;;;;;;5011992;28;20397;-89
2021/03/31 09:19:58;;;;;;;12.38;6.30;;;17.20;71.00;;;;;;5021937;28;20089;-89
2021/03/31 09:22:28;;;;;;;16.83;7.10;;;17.30;71.30;;;;;;5010687;28;20044;-89
2021/03/31 09:25:14;;;;;;;15.18;7.53;;;17.30;70.90;;;;;;5011520;28;20108;-89
2021/03/31 09:27:52;;;;;;;15.07;7.03;;;17.40;69.80;;;;;;5006362;28;20053;-88
2021/03/31 09:30:18;;;;;;;12.70;6.80;;;17.50;69.70;;;;;;5007681;28;20056;-88
2021/03/31 09:32:52;;;;;;;21.02;7.13;;;17.40;67.50;;;;;;5009402;28;20030;-88
2021/03/31 09:35:19;;;;;;;12.73;6.47;;;17.50;67.90;;;;;;5007364;28;20612;-89
2021/03/31 09:37:47;;;;;;;12.50;7.00;;;17.60;66.30;;;;;;5010861;28;20029;-89
2021/03/31 09:40:25;;;;;;;16.98;6.63;;;17.50;66.60;;;;;;5010126;28;20026;-88
2021/03/31 09:43:00;;;;;;;17.15;6.82;;;17.70;67.90;;;;;;5004394;28;20030;-87
2021/03/31 09:45:29;;;;;;;16.45;7.00;;;17.80;67.20;;;;;;5010035;28;20105;-88
2021/03/31 09:47:57;;;;;;;20.90;8.05;;;18.00;66.40;;;;;;5008252;28;20494;-88
2021/03/31 09:50:24;;;;;;;14.13;7.63;;;18.10;67.60;;;;;;5006725;28;20038;-90
2021/03/31 09:53:03;;;;;;;14.45;7.80;;;18.30;66.10;;;;;;5017052;28;20014;-92
2021/03/31 09:55:29;;;;;;;15.23;6.80;;;18.50;65.80;;;;;;5018900;28;20340;-90
2021/03/31 09:57:56;;;;;;;15.52;6.82;;;18.50;65.10;;;;;;5027019;28;20077;-88
2021/03/31 10:00:24;;;;;;;13.40;6.80;;;18.60;64.50;;;;;;5010328;28;20034;-87
2021/03/31 10:02:52;;;;;;;18.27;6.65;;;18.90;63.50;;;;;;5009945;28;20029;-88
2021/03/31 10:05:20;;;;;;;14.27;6.97;;;19.10;64.10;;;;;;5008327;28;20019;-88
2021/03/31 10:07:56;;;;;;;10.23;6.38;;;19.20;61.20;;;;;;5008905;28;20022;-87
2021/03/31 10:10:44;;;;;;;14.38;6.43;;;19.30;60.90;;;;;;5006740;28;20440;-87
2021/03/31 10:13:12;;;;;;;18.20;6.97;;;19.40;60.50;;;;;;5007327;28;20033;-88
2021/03/31 10:15:43;;;;;;;15.73;6.82;;;19.60;59.40;;;;;;5015737;28;20026;-88
2021/03/31 10:18:14;;;;;;;15.55;6.90;;;19.60;58.90;;;;;;5021070;28;20044;-87
2021/03/31 10:20:46;;;;;;;11.27;6.57;;;19.80;57.80;;;;;;5011306;28;20029;-87
2021/03/31 10:23:29;;;;;;;20.33;7.47;;;19.90;57.50;;;;;;5011932;28;20030;-88
2021/03/31 10:26:19;;;;;;;14.75;6.65;;;20.00;58.10;;;;;;5008692;28;20034;-87
2021/03/31 10:28:46;;;;;;;20.00;7.13;;;20.30;58.10;;;;;;5011917;28;20029;-87
2021/03/31 10:31:25;;;;;;;13.98;6.05;;;20.40;57.30;;;;;;5012250;28;20387;-87
2021/03/31 10:33:53;;;;;;;12.95;6.72;;;20.60;57.50;;;;;;5006791;28;20479;-88
2021/03/31 10:50:55;;;;;;;13.20;6.70;;;21.70;53.80;;;;;;5015305;28;20089;-88
2021/03/31 21:49:55;;;;;;;14.90;5.70;;;14.70;59.00;;;;;;5036270;28;20523;-85
2021/03/31 21:52:23;;;;;;;11.70;5.88;;;14.70;59.40;;;;;;5038070;28;20116;-85
2021/03/31 21:54:49;;;;;;;13.43;6.70;;;14.70;59.70;;;;;;5040969;28;20053;-82
2021/03/31 21:57:15;;;;;;;15.50;6.55;;;14.70;59.90;;;;;;5037197;28;20044;-84
2021/03/31 21:59:40;;;;;;;15.23;6.70;;;14.70;59.60;;;;;;5032407;28;20036;-83
2021/03/31 22:02:06;;;;;;;15.63;6.28;;;14.70;59.70;;;;;;5032398;28;20112;-84
2021/03/31 22:04:32;;;;;;;13.60;6.25;;;14.70;60.10;;;;;;5029735;28;20097;-84
2021/03/31 22:06:57;;;;;;;16.33;7.00;;;14.70;60.00;;;;;;5032656;28;20023;-84
2021/03/31 22:09:23;;;;;;;13.48;7.32;;;14.60;59.80;;;;;;5027712;28;20125;-84
2021/03/31 22:11:50;;;;;;;14.02;7.40;;;14.70;60.70;;;;;;5034094;28;20083;-84
2021/03/31 22:14:16;;;;;;;17.17;7.55;;;14.60;59.70;;;;;;5031578;28;20026;-84
2021/03/31 22:16:41;;;;;;;12.73;7.03;;;14.60;59.80;;;;;;5049322;28;20029;-83
2021/03/31 22:19:07;;;;;;;14.45;7.20;;;14.60;60.70;;;;;;5038257;28;20492;-83
2021/03/31 22:21:36;;;;;;;16.08;7.07;;;14.60;60.50;;;;;;5040757;28;20025;-84
2021/03/31 22:24:03;;;;;;;15.80;7.13;;;14.50;60.60;;;;;;5050474;23;20045;-85
2021/03/31 22:26:34;;;;;;;14.38;6.93;;;14.50;61.00;;;;;;5045093;28;20029;-85
2021/03/31 22:29:00;;;;;;;15.65;6.35;;;14.50;61.30;;;;;;5045557;28;20022;-85
2021/03/31 22:31:27;;;;;;;15.20;7.15;;;14.40;60.50;;;;;;5043096;28;20048;-85
2021/03/31 22:33:58;;;;;;;15.63;7.63;;;14.30;60.70;;;;;;5035139;28;20041;-85
2021/03/31 22:36:26;;;;;;;14.87;7.40;;;14.40;60.60;;;;;;5045042;28;20071;-85
2021/03/31 22:38:52;;;;;;;15.35;8.15;;;14.30;61.50;;;;;;5045275;28;20017;-84
2021/03/31 22:41:19;;;;;;;16.80;6.70;;;14.30;60.60;;;;;;5047448;28;20052;-85
2021/03/31 22:43:45;;;;;;;13.90;7.18;;;14.30;60.60;;;;;;5046989;28;20030;-84
2021/03/31 22:46:14;;;;;;;14.13;6.95;;;14.30;60.60;;;;;;5037345;28;20014;-85
2021/03/31 22:48:39;;;;;;;13.85;6.45;;;14.30;61.60;;;;;;5045756;28;20100;-85
2021/03/31 22:51:05;;;;;;;12.77;6.75;;;14.20;61.70;;;;;;5043473;28;20075;-85
2021/03/31 22:56:12;;;;;;;16.27;6.57;;;14.20;62.40;;;;;;5043858;28;20026;-85
2021/03/31 22:58:40;;;;;;;16.27;7.10;;;14.10;62.00;;;;;;5045361;28;20073;-85
2021/03/31 23:04:02;;;;;;;16.25;6.90;;;14.10;62.70;;;;;;5038793;28;20044;-85
2021/03/31 23:06:31;;;;;;;13.60;7.20;;;14.00;62.20;;;;;;5046898;28;20081;-85
2021/03/31 23:08:56;;;;;;;12.82;6.85;;;14.00;61.60;;;;;;5047133;28;20037;-84
2021/03/31 23:11:23;;;;;;;13.73;6.22;;;14.00;62.00;;;;;;5049292;28;20021;-84
2021/03/31 23:13:49;;;;;;;14.57;6.35;;;14.00;61.80;;;;;;5041802;28;20021;-85
2021/03/31 23:16:14;;;;;;;19.80;6.72;;;13.90;62.30;;;;;;5046472;28;20025;-84
2021/03/31 23:18:40;;;;;;;12.82;6.50;;;13.90;62.80;;;;;;5045116;28;20040;-85
2021/03/31 23:21:06;;;;;;;13.10;6.50;;;13.90;62.70;;;;;;5049163;28;20085;-84
2021/03/31 23:23:32;;;;;;;16.55;6.68;;;13.90;63.00;;;;;;5060033;28;20041;-84
2021/03/31 23:25:58;;;;;;;15.10;6.40;;;13.80;62.80;;;;;;5050749;28;20021;-84
2021/03/31 23:28:24;;;;;;;14.18;6.00;;;13.80;63.00;;;;;;5050667;28;20022;-84
2021/03/31 23:30:53;;;;;;;14.00;6.53;;;13.80;62.70;;;;;;5051202;28;20052;-83
2021/03/31 23:33:19;;;;;;;13.65;6.80;;;13.70;63.00;;;;;;5051543;28;20010;-84
2021/03/31 23:35:45;;;;;;;14.40;7.45;;;13.70;63.30;;;;;;5047986;28;20045;-84
2021/03/31 23:38:11;;;;;;;14.95;6.70;;;13.70;63.80;;;;;;5051130;28;20021;-85
2021/03/31 23:40:37;;;;;;;12.68;6.20;;;13.60;64.30;;;;;;5052050;28;20013;-85
2021/03/31 23:43:06;;;;;;;15.18;6.28;;;13.60;64.00;;;;;;5050128;28;20017;-85
2021/03/31 23:45:34;;;;;;;15.27;6.18;;;13.60;64.60;;;;;;5050425;28;20036;-85
2021/03/31 23:48:00;;;;;;;14.77;6.43;;;13.50;64.50;;;;;;5046536;28;20022;-84
2021/03/31 23:50:26;;;;;;;14.40;5.75;;;13.50;65.10;;;;;;5046608;28;20095;-85
2021/03/31 23:52:52;;;;;;;14.60;6.10;;;13.50;64.90;;;;;;5044517;28;20045;-85
2021/03/31 23:55:18;;;;;;;14.32;6.72;;;13.50;65.50;;;;;;5046283;28;20021;-84
2021/03/31 23:57:44;;;;;;;12.60;6.15;;;13.40;65.40;;;;;;5045651;28;20084;-84
